Terminal Aerodrome Forecast
Issued by NWS

Home | Current Version | Previous Version | Graphics & Text | Print | Product List | Glossary On
Versions: 1 2 3 4 5 6 7 8 9 10 11 12 13 14 15
000
FTUS43 KMPX 262000 AAA
TAFAXN
TAF AMD
KAXN 262000Z 2620/2718 33010G17KT P6SM OVC025
     FM262100 34013G22KT P6SM SCT035
     FM270000 36008KT P6SM SKC
     FM270800 VRB03KT P6SM FEW250
     FM271500 15004KT P6SM FEW120 SCT250=

USA.gov is the U.S. government's official web portal to all federal, state and local government web resources and services.